createdAt,value
2022-09-27T00:02:08.143Z,10.59
2022-09-27T00:04:35.640Z,10.66
2022-09-27T00:07:03.051Z,10.56
2022-09-27T00:09:30.473Z,10.86
2022-09-27T00:11:57.845Z,10.50
2022-09-27T00:14:25.346Z,10.62
2022-09-27T00:16:54.210Z,10.67
2022-09-27T00:19:23.720Z,10.74
2022-09-27T00:21:51.425Z,10.78
2022-09-27T00:24:20.945Z,10.70
2022-09-27T00:26:48.994Z,10.53
2022-09-27T00:29:18.009Z,10.57
2022-09-27T00:31:45.725Z,10.64
2022-09-27T00:34:20.290Z,10.78
2022-09-27T00:36:48.547Z,10.65
2022-09-27T00:39:16.311Z,10.70
2022-09-27T00:41:44.485Z,10.62
2022-09-27T00:44:49.561Z,10.59
2022-09-27T00:47:22.061Z,10.69
2022-09-27T00:49:54.656Z,10.56
2022-09-27T00:52:24.589Z,10.68
2022-09-27T00:54:55.220Z,10.68
2022-09-27T00:57:23.536Z,10.86
2022-09-27T00:59:53.530Z,10.87
2022-09-27T01:02:22.321Z,10.73
2022-09-27T01:04:52.045Z,10.82
2022-09-27T01:07:19.893Z,10.90
2022-09-27T01:09:47.514Z,11.06
2022-09-27T01:12:23.877Z,10.93
2022-09-27T01:15:03.587Z,11.02
2022-09-27T01:17:41.068Z,10.99
2022-09-27T01:20:21.313Z,11.01
2022-09-27T01:22:59.777Z,11.13
2022-09-27T01:25:44.478Z,11.27
2022-09-27T01:28:20.941Z,11.24
2022-09-27T01:30:51.813Z,11.36
2022-09-27T01:33:26.841Z,11.35
2022-09-27T01:36:05.806Z,11.45
2022-09-27T01:38:42.505Z,11.43
2022-09-27T01:41:17.153Z,11.48
2022-09-27T01:44:15.027Z,11.41
2022-09-27T01:46:51.677Z,11.29
2022-09-27T01:49:30.293Z,11.32
2022-09-27T01:52:00.645Z,11.24
2022-09-27T01:54:38.605Z,11.25
2022-09-27T01:57:23.472Z,11.20
2022-09-27T01:59:54.460Z,11.17
2022-09-27T02:02:45.849Z,11.18
2022-09-27T02:05:33.476Z,11.06
2022-09-27T02:08:13.818Z,10.98
2022-09-27T02:10:46.143Z,11.02
2022-09-27T02:13:21.793Z,10.97
2022-09-27T02:15:57.760Z,11.02
2022-09-27T02:18:47.751Z,10.93
2022-09-27T02:21:16.337Z,10.98
2022-09-27T02:23:47.315Z,10.99
2022-09-27T02:26:17.445Z,10.93
2022-09-27T02:28:49.922Z,10.92
2022-09-27T02:31:25.273Z,10.86
2022-09-27T02:34:01.978Z,10.87
2022-09-27T02:36:30.078Z,10.78
2022-09-27T02:38:57.746Z,10.78
2022-09-27T02:41:25.115Z,10.74
2022-09-27T02:43:55.912Z,10.76
2022-09-27T02:46:43.011Z,10.76
2022-09-27T02:49:20.404Z,10.82
2022-09-27T02:52:09.302Z,10.88
2022-09-27T02:54:42.251Z,10.86
2022-09-27T02:57:36.398Z,10.79
2022-09-27T03:00:18.353Z,10.81
2022-09-27T03:03:00.735Z,10.83
2022-09-27T03:05:42.758Z,10.87
2022-09-27T03:08:10.625Z,10.91
2022-09-27T03:10:37.975Z,10.85
2022-09-27T03:13:05.822Z,10.92
2022-09-27T03:15:33.441Z,10.97
2022-09-27T03:18:00.994Z,10.92
2022-09-27T03:21:04.770Z,10.93
2022-09-27T03:23:32.537Z,10.99
2022-09-27T03:25:59.977Z,10.84
2022-09-27T03:28:29.589Z,10.82
2022-09-27T03:30:57.037Z,10.79
2022-09-27T03:33:48.045Z,10.82
2022-09-27T03:36:17.069Z,10.84
2022-09-27T03:38:44.406Z,10.89
2022-09-27T03:41:16.691Z,10.97
2022-09-27T03:43:44.184Z,10.92
2022-09-27T03:46:12.037Z,10.84
2022-09-27T03:48:39.572Z,10.82
2022-09-27T03:51:07.242Z,10.86
2022-09-27T03:53:36.718Z,10.78
2022-09-27T03:56:04.665Z,10.70
2022-09-27T03:58:32.366Z,10.56
2022-09-27T04:01:00.094Z,10.43
2022-09-27T04:03:28.194Z,10.45
2022-09-27T04:06:27.016Z,10.47
2022-09-27T04:08:56.152Z,10.41
2022-09-27T04:11:30.824Z,10.47
2022-09-27T04:13:59.021Z,10.49
2022-09-27T04:16:27.413Z,10.40
2022-09-27T04:19:13.694Z,10.48
2022-09-27T04:21:46.985Z,10.51
2022-09-27T04:24:16.260Z,10.43
2022-09-27T04:26:54.956Z,10.30
2022-09-27T04:29:25.998Z,10.33
2022-09-27T04:31:55.320Z,10.19
2022-09-27T04:35:03.320Z,10.14
2022-09-27T04:37:30.841Z,10.18
2022-09-27T04:40:04.525Z,10.20
2022-09-27T04:42:33.944Z,10.14
2022-09-27T04:45:01.976Z,10.07
2022-09-27T04:47:29.345Z,10.07
2022-09-27T04:49:57.593Z,10.03
2022-09-27T04:52:25.361Z,10.11
2022-09-27T04:54:52.784Z,10.03
2022-09-27T04:57:22.145Z,10.03
2022-09-27T04:59:51.521Z,9.98
2022-09-27T05:02:19.171Z,10.01
2022-09-27T05:05:10.953Z,10.05
2022-09-27T05:07:41.775Z,9.98
2022-09-27T05:10:14.566Z,9.92
2022-09-27T05:12:43.469Z,9.95
2022-09-27T05:15:14.769Z,10.00
2022-09-27T05:18:00.880Z,9.93
2022-09-27T05:20:47.125Z,9.95
2022-09-27T05:23:21.221Z,9.97
2022-09-27T05:25:48.957Z,9.88
2022-09-27T05:28:17.649Z,9.91
2022-09-27T05:30:45.644Z,9.90
2022-09-27T05:33:18.951Z,9.86
2022-09-27T05:35:53.493Z,9.82
2022-09-27T05:38:23.717Z,9.82
2022-09-27T05:40:53.508Z,9.83
2022-09-27T05:43:22.225Z,9.92
2022-09-27T05:45:52.729Z,9.85
2022-09-27T05:48:21.999Z,9.82
2022-09-27T05:51:03.025Z,9.86
2022-09-27T05:53:32.439Z,9.88
2022-09-27T05:56:02.736Z,9.78
2022-09-27T05:58:39.651Z,9.87
2022-09-27T06:01:14.381Z,9.97
2022-09-27T06:04:02.251Z,9.99
2022-09-27T06:06:53.985Z,9.91
2022-09-27T06:09:21.464Z,9.80
2022-09-27T06:11:49.429Z,9.87
2022-09-27T06:14:19.440Z,9.79
2022-09-27T06:17:07.170Z,9.82
2022-09-27T06:19:36.962Z,9.89
2022-09-27T06:22:04.759Z,9.88
2022-09-27T06:24:41.634Z,9.90
2022-09-27T06:27:16.072Z,9.96
2022-09-27T06:29:52.024Z,9.90
2022-09-27T06:32:33.023Z,9.83
2022-09-27T06:35:15.911Z,10.01
2022-09-27T06:37:43.277Z,9.93
2022-09-27T06:40:11.122Z,9.91
2022-09-27T06:42:59.967Z,9.84
2022-09-27T06:45:48.978Z,9.68
2022-09-27T06:48:32.186Z,9.63
2022-09-27T06:51:11.344Z,9.58
2022-09-27T06:53:38.828Z,9.63
2022-09-27T06:56:06.585Z,9.73
2022-09-27T06:59:02.619Z,9.69
2022-09-27T07:01:57.825Z,9.88
2022-09-27T07:04:43.769Z,9.89
2022-09-27T07:07:39.738Z,9.89
2022-09-27T07:10:09.974Z,9.94
2022-09-27T07:12:38.024Z,9.86
2022-09-27T07:15:06.764Z,9.90
2022-09-27T07:17:36.148Z,9.75
2022-09-27T07:20:03.757Z,9.77
2022-09-27T07:22:31.702Z,10.02
2022-09-27T07:25:02.831Z,10.42
2022-09-27T07:27:32.989Z,10.68
2022-09-27T07:30:00.913Z,10.75
2022-09-27T07:32:28.999Z,11.06
2022-09-27T07:34:57.709Z,10.96
2022-09-27T07:37:26.132Z,11.09
2022-09-27T07:39:54.074Z,11.03
2022-09-27T07:42:21.535Z,11.06
2022-09-27T07:44:52.107Z,11.05
2022-09-27T07:47:29.267Z,10.89
2022-09-27T07:50:10.705Z,11.17
2022-09-27T07:52:57.309Z,11.23
2022-09-27T07:55:33.813Z,11.23
2022-09-27T07:58:18.003Z,11.10
2022-09-27T08:00:45.598Z,11.27
2022-09-27T08:03:15.943Z,11.45
2022-09-27T08:05:45.445Z,11.36
2022-09-27T08:08:12.832Z,11.41
2022-09-27T08:10:44.034Z,11.59
2022-09-27T08:13:12.827Z,11.03
2022-09-27T08:15:41.098Z,11.02
2022-09-27T08:18:10.297Z,11.10
2022-09-27T08:20:58.616Z,10.97
2022-09-27T08:23:29.445Z,10.85
2022-09-27T08:26:15.233Z,10.82
2022-09-27T08:29:00.869Z,10.76
2022-09-27T08:31:31.261Z,11.03
2022-09-27T08:33:58.881Z,11.14
2022-09-27T08:36:28.687Z,11.06
2022-09-27T08:38:59.005Z,11.43
2022-09-27T08:41:36.189Z,11.77
2022-09-27T08:44:10.297Z,12.20
2022-09-27T08:46:53.811Z,12.19
2022-09-27T08:49:26.307Z,12.03
2022-09-27T08:51:55.830Z,12.07
2022-09-27T08:54:25.719Z,12.02
2022-09-27T08:56:54.021Z,12.16
2022-09-27T08:59:25.221Z,12.45
2022-09-27T09:01:53.861Z,12.63
2022-09-27T09:04:34.455Z,13.19
2022-09-27T09:07:10.465Z,13.56
2022-09-27T09:09:45.749Z,13.33
2022-09-27T09:12:49.874Z,13.47
2022-09-27T09:15:26.866Z,13.27
2022-09-27T09:18:11.934Z,13.11
2022-09-27T09:20:58.308Z,12.95
2022-09-27T09:23:43.066Z,13.30
2022-09-27T09:26:14.850Z,13.73
2022-09-27T09:28:52.598Z,13.53
2022-09-27T09:31:26.091Z,13.95
2022-09-27T09:33:56.222Z,13.92
2022-09-27T09:36:28.773Z,13.43
2022-09-27T09:39:00.653Z,13.20
2022-09-27T09:41:30.087Z,12.71
2022-09-27T09:43:59.509Z,12.38
2022-09-27T09:46:31.269Z,12.23
2022-09-27T09:49:07.350Z,12.06
2022-09-27T09:51:39.385Z,12.25
2022-09-27T09:54:16.216Z,12.88
2022-09-27T09:56:47.530Z,12.97
2022-09-27T09:59:17.250Z,13.11
2022-09-27T10:01:47.909Z,12.57
2022-09-27T10:04:19.863Z,12.39
2022-09-27T10:06:47.567Z,12.38
2022-09-27T10:09:17.469Z,12.62
2022-09-27T10:12:04.874Z,12.69
2022-09-27T10:14:33.465Z,12.96
2022-09-27T10:17:10.035Z,12.79
2022-09-27T10:19:39.402Z,12.66
2022-09-27T10:22:14.693Z,12.73
2022-09-27T10:24:56.502Z,12.86
2022-09-27T10:27:48.021Z,13.87
2022-09-27T10:30:29.277Z,14.92
2022-09-27T10:32:59.674Z,15.35
2022-09-27T10:35:41.697Z,15.08
2022-09-27T10:38:26.409Z,14.80
2022-09-27T10:41:23.173Z,13.37
2022-09-27T10:43:51.501Z,11.84
2022-09-27T10:46:32.173Z,11.36
2022-09-27T10:49:20.059Z,10.84
2022-09-27T10:51:51.789Z,10.41
2022-09-27T10:54:24.955Z,10.01
2022-09-27T10:56:58.730Z,9.93
2022-09-27T10:59:26.806Z,9.89
2022-09-27T11:01:54.279Z,9.73
2022-09-27T11:04:32.232Z,9.88
2022-09-27T11:07:14.955Z,9.71
2022-09-27T11:09:48.422Z,9.85
2022-09-27T11:12:20.661Z,9.97
2022-09-27T11:14:55.201Z,9.92
2022-09-27T11:17:27.453Z,9.83
2022-09-27T11:20:14.860Z,9.94
2022-09-27T11:23:00.516Z,10.19
2022-09-27T11:25:38.352Z,10.14
2022-09-27T11:28:14.403Z,10.94
2022-09-27T11:30:48.512Z,11.29
2022-09-27T11:33:45.966Z,11.28
2022-09-27T11:36:17.981Z,11.49
2022-09-27T11:39:01.754Z,11.39
2022-09-27T11:41:41.056Z,11.60
2022-09-27T11:44:40.706Z,12.50
2022-09-27T11:47:17.229Z,12.52
2022-09-27T11:50:30.528Z,12.56
2022-09-27T11:53:08.937Z,12.82
2022-09-27T11:55:44.261Z,12.64
2022-09-27T11:58:18.766Z,12.88
2022-09-27T12:01:01.622Z,12.57
2022-09-27T12:03:53.253Z,12.89
2022-09-27T12:06:26.508Z,13.05
2022-09-27T12:09:03.458Z,12.92
2022-09-27T12:11:37.422Z,12.47
2022-09-27T12:14:07.964Z,12.47
2022-09-27T12:16:38.001Z,12.41
2022-09-27T12:19:10.291Z,12.48
2022-09-27T12:21:52.763Z,12.48
2022-09-27T12:24:22.386Z,12.50
2022-09-27T12:27:17.505Z,12.05
2022-09-27T12:29:47.214Z,12.01
2022-09-27T12:32:18.788Z,11.81
2022-09-27T12:34:50.021Z,11.59
2022-09-27T12:37:20.717Z,11.51
2022-09-27T12:39:51.765Z,12.06
2022-09-27T12:42:33.573Z,12.53
2022-09-27T12:45:11.977Z,12.41
2022-09-27T12:47:57.479Z,12.45
2022-09-27T12:50:30.943Z,12.39
2022-09-27T12:53:05.195Z,12.21
2022-09-27T12:55:57.188Z,12.51
2022-09-27T12:58:38.450Z,12.49
2022-09-27T13:01:14.011Z,12.57
2022-09-27T13:03:56.353Z,12.61
2022-09-27T13:06:33.617Z,12.15
2022-09-27T13:09:34.854Z,11.73
2022-09-27T13:12:05.404Z,11.24
2022-09-27T13:14:36.969Z,11.38
2022-09-27T13:17:04.379Z,11.64
2022-09-27T13:19:42.674Z,11.79
2022-09-27T13:22:38.397Z,12.62
2022-09-27T13:25:52.910Z,12.94
2022-09-27T13:28:36.516Z,13.05
2022-09-27T13:31:15.198Z,12.65
2022-09-27T13:33:47.113Z,13.26
2022-09-27T13:36:32.806Z,13.81
2022-09-27T13:39:22.635Z,13.70
2022-09-27T13:42:32.294Z,14.08
2022-09-27T13:45:20.007Z,13.84
2022-09-27T13:47:48.873Z,14.12
2022-09-27T13:50:26.476Z,14.55
2022-09-27T13:53:08.018Z,13.09
2022-09-27T13:55:42.799Z,13.40
2022-09-27T13:58:30.183Z,13.62
2022-09-27T14:01:00.248Z,13.28
2022-09-27T14:03:30.150Z,13.48
2022-09-27T14:06:05.424Z,13.45
2022-09-27T14:08:41.106Z,13.14
2022-09-27T14:11:13.664Z,13.06
2022-09-27T14:13:41.881Z,12.83
2022-09-27T14:16:15.510Z,12.85
2022-09-27T14:18:46.049Z,12.74
2022-09-27T14:21:19.793Z,12.59
2022-09-27T14:24:21.642Z,12.67
2022-09-27T14:26:49.220Z,13.54
2022-09-27T14:29:17.884Z,13.54
2022-09-27T14:31:45.423Z,13.71
2022-09-27T14:34:19.890Z,13.49
2022-09-27T14:37:07.147Z,13.11
2022-09-27T14:39:46.457Z,13.16
2022-09-27T14:42:32.809Z,12.92
2022-09-27T14:45:02.756Z,13.17
2022-09-27T14:47:30.202Z,13.07
2022-09-27T14:49:59.909Z,13.09
2022-09-27T14:52:31.219Z,13.39
2022-09-27T14:55:02.691Z,13.22
2022-09-27T14:57:32.744Z,12.95
2022-09-27T15:00:03.794Z,12.88
2022-09-27T15:02:34.197Z,13.12
2022-09-27T15:05:01.568Z,12.83
2022-09-27T15:07:29.030Z,12.87
2022-09-27T15:09:56.997Z,12.73
2022-09-27T15:12:27.137Z,12.50
2022-09-27T15:14:56.445Z,12.50
2022-09-27T15:17:25.117Z,12.37
2022-09-27T15:20:00.497Z,12.18
2022-09-27T15:22:35.158Z,11.79
2022-09-27T15:25:17.218Z,11.15
2022-09-27T15:27:52.840Z,10.69
2022-09-27T15:30:29.514Z,10.28
2022-09-27T15:32:57.490Z,10.19
2022-09-27T15:35:28.053Z,10.21
2022-09-27T15:38:13.474Z,10.26
2022-09-27T15:40:59.488Z,10.27
2022-09-27T15:43:30.944Z,10.33
2022-09-27T15:46:01.851Z,10.44
2022-09-27T15:48:29.875Z,10.53
2022-09-27T15:50:57.277Z,10.64
2022-09-27T15:53:42.382Z,10.69
2022-09-27T15:56:13.854Z,10.76
2022-09-27T15:58:43.302Z,10.85
2022-09-27T16:01:18.868Z,10.82
2022-09-27T16:03:46.464Z,10.81
2022-09-27T16:06:14.573Z,10.88
2022-09-27T16:08:42.097Z,10.74
2022-09-27T16:11:12.189Z,10.78
2022-09-27T16:13:39.513Z,10.94
2022-09-27T16:16:13.636Z,11.05
2022-09-27T16:18:40.963Z,11.10
2022-09-27T16:21:09.121Z,11.09
2022-09-27T16:23:36.558Z,11.18
2022-09-27T16:26:05.158Z,11.18
2022-09-27T16:28:32.813Z,11.10
2022-09-27T16:31:05.025Z,10.93
2022-09-27T16:33:34.453Z,10.93
2022-09-27T16:36:06.829Z,10.67
2022-09-27T16:38:34.184Z,10.65
2022-09-27T16:41:02.829Z,10.65
2022-09-27T16:43:31.129Z,10.40
2022-09-27T16:46:05.726Z,10.47
2022-09-27T16:48:34.389Z,10.12
2022-09-27T16:51:23.010Z,10.32
2022-09-27T16:53:50.407Z,10.08
2022-09-27T16:56:19.130Z,9.90
2022-09-27T16:58:46.754Z,9.84
2022-09-27T17:01:16.821Z,9.94
2022-09-27T17:03:49.625Z,9.87
2022-09-27T17:06:17.196Z,9.97
2022-09-27T17:08:44.866Z,10.00
2022-09-27T17:11:14.547Z,9.89
2022-09-27T17:13:42.344Z,9.83
2022-09-27T17:16:10.849Z,9.52
2022-09-27T17:18:38.703Z,9.73
2022-09-27T17:21:08.973Z,9.70
2022-09-27T17:23:36.868Z,9.53
2022-09-27T17:26:06.169Z,9.49
2022-09-27T17:28:33.744Z,9.63
2022-09-27T17:31:08.484Z,9.55
2022-09-27T17:33:43.289Z,9.53
2022-09-27T17:36:13.649Z,9.48
2022-09-27T17:38:42.274Z,9.49
2022-09-27T17:41:11.932Z,9.32
2022-09-27T17:43:46.413Z,9.26
2022-09-27T17:46:13.816Z,9.29
2022-09-27T17:48:58.667Z,9.36
2022-09-27T17:51:27.401Z,9.24
2022-09-27T17:53:54.745Z,9.12
2022-09-27T17:56:22.801Z,8.99
2022-09-27T17:58:51.586Z,9.23
2022-09-27T18:01:21.164Z,9.11
2022-09-27T18:03:48.675Z,9.07
2022-09-27T18:06:17.104Z,9.19
2022-09-27T18:08:45.809Z,9.27
2022-09-27T18:11:15.936Z,9.46
2022-09-27T18:13:44.258Z,9.48
2022-09-27T18:16:13.382Z,9.25
2022-09-27T18:18:42.333Z,9.43
2022-09-27T18:21:11.721Z,9.29
2022-09-27T18:23:39.869Z,9.23
2022-09-27T18:26:08.885Z,9.14
2022-09-27T18:28:37.501Z,9.08
2022-09-27T18:31:06.500Z,8.87
2022-09-27T18:33:34.462Z,8.96
2022-09-27T18:36:06.203Z,8.90
2022-09-27T18:38:34.351Z,8.90
2022-09-27T18:41:11.020Z,8.84
2022-09-27T18:43:39.074Z,8.87
2022-09-27T18:46:34.105Z,8.75
2022-09-27T18:48:56.592Z,8.75
2022-09-27T18:51:26.695Z,8.67
2022-09-27T18:53:55.781Z,8.77
2022-09-27T18:56:24.832Z,8.67
2022-09-27T18:58:52.473Z,8.47
2022-09-27T19:01:21.394Z,8.44
2022-09-27T19:03:49.277Z,8.48
2022-09-27T19:06:18.516Z,8.40
2022-09-27T19:08:46.065Z,8.55
2022-09-27T19:11:15.125Z,8.59
2022-09-27T19:13:51.142Z,8.55
2022-09-27T19:16:20.733Z,8.42
2022-09-27T19:18:48.454Z,8.54
2022-09-27T19:21:17.497Z,8.61
2022-09-27T19:23:45.872Z,8.63
2022-09-27T19:26:15.837Z,8.49
2022-09-27T19:28:45.589Z,8.64
2022-09-27T19:31:14.308Z,8.46
2022-09-27T19:33:42.029Z,8.42
2022-09-27T19:36:10.850Z,8.57
2022-09-27T19:38:39.046Z,8.65
2022-09-27T19:41:07.771Z,8.76
2022-09-27T19:43:35.301Z,8.59
2022-09-27T19:46:09.026Z,8.51
2022-09-27T19:48:37.226Z,8.69
2022-09-27T19:51:05.158Z,8.60
2022-09-27T19:53:33.086Z,8.45
2022-09-27T19:56:00.597Z,8.63
2022-09-27T19:58:28.902Z,8.59
2022-09-27T20:01:01.204Z,8.57
2022-09-27T20:03:30.502Z,8.58
2022-09-27T20:05:59.048Z,8.74
2022-09-27T20:08:26.782Z,8.59
2022-09-27T20:10:55.453Z,8.56
2022-09-27T20:13:23.813Z,8.60
2022-09-27T20:15:51.316Z,8.84
2022-09-27T20:18:18.721Z,8.64
2022-09-27T20:20:47.506Z,8.71
2022-09-27T20:23:19.773Z,8.74
2022-09-27T20:25:48.394Z,8.73
2022-09-27T20:28:15.741Z,8.72
2022-09-27T20:30:43.245Z,8.79
2022-09-27T20:33:28.249Z,8.80
2022-09-27T20:35:56.916Z,8.63
2022-09-27T20:38:24.258Z,8.64
2022-09-27T20:40:54.978Z,8.66
2022-09-27T20:43:22.481Z,8.71
2022-09-27T20:45:49.849Z,8.54
2022-09-27T20:48:17.955Z,8.39
2022-09-27T20:50:45.348Z,8.35
2022-09-27T20:53:14.036Z,8.25
2022-09-27T20:55:41.527Z,8.25
2022-09-27T20:58:08.878Z,8.22
2022-09-27T21:00:36.393Z,8.22
2022-09-27T21:03:04.013Z,8.26
2022-09-27T21:05:31.339Z,8.22
2022-09-27T21:07:58.701Z,8.10
2022-09-27T21:10:27.345Z,8.20
2022-09-27T21:12:54.734Z,7.98
2022-09-27T21:15:22.101Z,8.07
2022-09-27T21:17:50.173Z,8.17
2022-09-27T21:20:17.602Z,8.05
2022-09-27T21:22:44.981Z,8.09
2022-09-27T21:25:12.366Z,8.14
2022-09-27T21:27:41.041Z,7.99
2022-09-27T21:30:09.562Z,8.09
2022-09-27T21:32:38.089Z,7.98
2022-09-27T21:35:06.296Z,7.97
2022-09-27T21:37:34.039Z,8.03
2022-09-27T21:40:03.702Z,7.99
2022-09-27T21:42:31.098Z,8.06
2022-09-27T21:45:00.901Z,8.33
2022-09-27T21:47:28.269Z,8.37
2022-09-27T21:49:55.589Z,8.36
2022-09-27T21:52:22.939Z,8.38
2022-09-27T21:54:50.264Z,8.47
2022-09-27T21:57:17.622Z,8.49
2022-09-27T21:59:44.993Z,8.60
2022-09-27T22:02:13.779Z,8.55
2022-09-27T22:04:41.201Z,8.49
2022-09-27T22:07:08.529Z,8.34
2022-09-27T22:09:35.931Z,8.42
2022-09-27T22:12:03.300Z,8.37
2022-09-27T22:14:30.645Z,8.37
2022-09-27T22:16:57.981Z,8.35
2022-09-27T22:19:26.658Z,8.43
2022-09-27T22:21:54.050Z,8.51
2022-09-27T22:24:21.444Z,8.41
2022-09-27T22:26:50.204Z,8.45
2022-09-27T22:29:17.903Z,8.46
2022-09-27T22:31:45.511Z,8.51
2022-09-27T22:34:18.157Z,8.63
2022-09-27T22:36:46.893Z,8.67
2022-09-27T22:39:14.304Z,8.53
2022-09-27T22:41:41.749Z,8.68
2022-09-27T22:44:09.054Z,8.65
2022-09-27T22:46:36.550Z,8.60
2022-09-27T22:49:03.944Z,8.82
2022-09-27T22:51:31.280Z,8.82
2022-09-27T22:54:00.033Z,8.72
2022-09-27T22:56:27.556Z,8.87
2022-09-27T22:58:54.877Z,8.83
2022-09-27T23:01:23.647Z,8.81
2022-09-27T23:03:52.197Z,8.86
2022-09-27T23:06:21.586Z,8.79
2022-09-27T23:08:49.414Z,8.88
2022-09-27T23:11:19.805Z,8.56
2022-09-27T23:13:47.947Z,8.60
2022-09-27T23:16:16.896Z,8.63
2022-09-27T23:18:46.286Z,8.63
2022-09-27T23:21:15.049Z,8.56
2022-09-27T23:23:44.672Z,8.61
2022-09-27T23:26:13.521Z,8.65
2022-09-27T23:28:42.272Z,8.47
2022-09-27T23:31:13.483Z,8.59
2022-09-27T23:33:42.841Z,8.40
2022-09-27T23:36:11.537Z,8.29
2022-09-27T23:38:40.234Z,8.32
2022-09-27T23:41:08.502Z,8.48
2022-09-27T23:43:36.370Z,8.43
2022-09-27T23:46:06.759Z,8.56
2022-09-27T23:48:34.716Z,8.45
2022-09-27T23:51:02.554Z,8.57
2022-09-27T23:53:29.956Z,8.61
2022-09-27T23:56:02.449Z,8.62
2022-09-27T23:58:30.665Z,8.63
